sensor_id;sensor_type;location;lat;lon;timestamp;P1;durP1;ratioP1;P2;durP2;ratioP2
83209;SDS011;73098;47.102;15.428;2024-01-30T00:01:01;12.47;;;11.17;;
83209;SDS011;73098;47.102;15.428;2024-01-30T00:03:28;10.93;;;9.80;;
83209;SDS011;73098;47.102;15.428;2024-01-30T00:05:54;14.57;;;10.83;;
83209;SDS011;73098;47.102;15.428;2024-01-30T00:08:25;12.47;;;11.23;;
83209;SDS011;73098;47.102;15.428;2024-01-30T00:10:52;12.90;;;10.63;;
83209;SDS011;73098;47.102;15.428;2024-01-30T00:13:19;13.37;;;10.83;;
83209;SDS011;73098;47.102;15.428;2024-01-30T00:15:46;16.50;;;12.13;;
83209;SDS011;73098;47.102;15.428;2024-01-30T00:18:12;12.37;;;9.37;;
83209;SDS011;73098;47.102;15.428;2024-01-30T00:20:39;14.03;;;10.20;;
83209;SDS011;73098;47.102;15.428;2024-01-30T00:23:05;13.47;;;10.70;;
83209;SDS011;73098;47.102;15.428;2024-01-30T00:25:32;11.70;;;10.13;;
83209;SDS011;73098;47.102;15.428;2024-01-30T00:27:59;11.20;;;9.00;;
83209;SDS011;73098;47.102;15.428;2024-01-30T00:30:25;11.70;;;10.20;;
83209;SDS011;73098;47.102;15.428;2024-01-30T00:32:53;10.60;;;9.43;;
83209;SDS011;73098;47.102;15.428;2024-01-30T00:35:19;13.00;;;9.70;;
83209;SDS011;73098;47.102;15.428;2024-01-30T00:37:46;14.40;;;10.60;;
83209;SDS011;73098;47.102;15.428;2024-01-30T00:40:12;11.70;;;10.60;;
83209;SDS011;73098;47.102;15.428;2024-01-30T00:42:39;14.70;;;10.80;;
83209;SDS011;73098;47.102;15.428;2024-01-30T00:45:06;12.87;;;9.47;;
83209;SDS011;73098;47.102;15.428;2024-01-30T00:47:33;14.23;;;11.10;;
83209;SDS011;73098;47.102;15.428;2024-01-30T00:49:59;13.47;;;10.20;;
83209;SDS011;73098;47.102;15.428;2024-01-30T00:52:26;11.03;;;8.90;;
83209;SDS011;73098;47.102;15.428;2024-01-30T00:54:52;10.90;;;9.80;;
83209;SDS011;73098;47.102;15.428;2024-01-30T00:57:19;13.13;;;9.77;;
83209;SDS011;73098;47.102;15.428;2024-01-30T00:59:45;11.87;;;10.17;;
83209;SDS011;73098;47.102;15.428;2024-01-30T01:02:12;11.33;;;10.20;;
83209;SDS011;73098;47.102;15.428;2024-01-30T01:04:39;12.17;;;9.87;;
83209;SDS011;73098;47.102;15.428;2024-01-30T01:07:05;12.23;;;11.03;;
83209;SDS011;73098;47.102;15.428;2024-01-30T01:09:32;12.60;;;9.80;;
83209;SDS011;73098;47.102;15.428;2024-01-30T01:11:59;11.70;;;10.47;;
83209;SDS011;73098;47.102;15.428;2024-01-30T01:14:25;11.60;;;10.40;;
83209;SDS011;73098;47.102;15.428;2024-01-30T01:16:52;14.97;;;10.77;;
83209;SDS011;73098;47.102;15.428;2024-01-30T01:19:18;10.67;;;9.57;;
83209;SDS011;73098;47.102;15.428;2024-01-30T01:21:45;12.83;;;11.30;;
83209;SDS011;73098;47.102;15.428;2024-01-30T01:24:11;13.43;;;10.50;;
83209;SDS011;73098;47.102;15.428;2024-01-30T01:26:38;12.90;;;10.67;;
83209;SDS011;73098;47.102;15.428;2024-01-30T01:29:06;12.07;;;10.10;;
83209;SDS011;73098;47.102;15.428;2024-01-30T01:31:32;11.10;;;8.90;;
83209;SDS011;73098;47.102;15.428;2024-01-30T01:33:59;10.60;;;8.97;;
83209;SDS011;73098;47.102;15.428;2024-01-30T01:36:26;11.53;;;8.80;;
83209;SDS011;73098;47.102;15.428;2024-01-30T01:38:52;13.53;;;10.13;;
83209;SDS011;73098;47.102;15.428;2024-01-30T01:41:19;11.23;;;9.57;;
83209;SDS011;73098;47.102;15.428;2024-01-30T01:43:45;10.20;;;9.20;;
83209;SDS011;73098;47.102;15.428;2024-01-30T01:46:12;11.93;;;10.40;;
83209;SDS011;73098;47.102;15.428;2024-01-30T01:48:39;12.60;;;10.27;;
83209;SDS011;73098;47.102;15.428;2024-01-30T01:51:06;13.13;;;9.73;;
83209;SDS011;73098;47.102;15.428;2024-01-30T01:53:33;11.17;;;10.07;;
83209;SDS011;73098;47.102;15.428;2024-01-30T01:56:00;12.63;;;10.53;;
83209;SDS011;73098;47.102;15.428;2024-01-30T01:58:26;11.80;;;9.97;;
83209;SDS011;73098;47.102;15.428;2024-01-30T02:00:54;13.60;;;11.13;;
83209;SDS011;73098;47.102;15.428;2024-01-30T02:03:21;13.30;;;10.60;;
83209;SDS011;73098;47.102;15.428;2024-01-30T02:05:48;14.47;;;10.10;;
83209;SDS011;73098;47.102;15.428;2024-01-30T02:08:14;11.77;;;9.50;;
83209;SDS011;73098;47.102;15.428;2024-01-30T02:10:41;9.70;;;8.70;;
83209;SDS011;73098;47.102;15.428;2024-01-30T02:13:08;12.43;;;9.33;;
83209;SDS011;73098;47.102;15.428;2024-01-30T02:15:34;12.17;;;9.70;;
83209;SDS011;73098;47.102;15.428;2024-01-30T02:18:01;11.23;;;10.13;;
83209;SDS011;73098;47.102;15.428;2024-01-30T02:20:28;14.20;;;10.77;;
83209;SDS011;73098;47.102;15.428;2024-01-30T02:22:56;10.63;;;9.50;;
83209;SDS011;73098;47.102;15.428;2024-01-30T02:25:33;11.60;;;10.50;;
83209;SDS011;73098;47.102;15.428;2024-01-30T02:28:05;10.53;;;9.40;;
83209;SDS011;73098;47.102;15.428;2024-01-30T02:30:32;11.00;;;9.13;;
83209;SDS011;73098;47.102;15.428;2024-01-30T02:32:58;13.60;;;10.73;;
83209;SDS011;73098;47.102;15.428;2024-01-30T02:35:25;14.33;;;8.80;;
83209;SDS011;73098;47.102;15.428;2024-01-30T02:37:51;10.93;;;9.60;;
83209;SDS011;73098;47.102;15.428;2024-01-30T02:40:18;13.00;;;10.13;;
83209;SDS011;73098;47.102;15.428;2024-01-30T02:42:45;13.37;;;10.37;;
83209;SDS011;73098;47.102;15.428;2024-01-30T02:45:11;10.73;;;8.70;;
83209;SDS011;73098;47.102;15.428;2024-01-30T02:47:39;11.93;;;10.27;;
83209;SDS011;73098;47.102;15.428;2024-01-30T02:50:06;10.10;;;8.90;;
83209;SDS011;73098;47.102;15.428;2024-01-30T02:52:33;12.33;;;9.00;;
83209;SDS011;73098;47.102;15.428;2024-01-30T02:55:00;12.53;;;9.70;;
83209;SDS011;73098;47.102;15.428;2024-01-30T02:57:26;11.50;;;10.20;;
83209;SDS011;73098;47.102;15.428;2024-01-30T02:59:53;13.20;;;10.37;;
83209;SDS011;73098;47.102;15.428;2024-01-30T03:02:20;10.33;;;9.33;;
83209;SDS011;73098;47.102;15.428;2024-01-30T03:04:46;11.13;;;8.90;;
83209;SDS011;73098;47.102;15.428;2024-01-30T03:07:13;11.63;;;9.63;;
83209;SDS011;73098;47.102;15.428;2024-01-30T03:09:41;11.23;;;9.13;;
83209;SDS011;73098;47.102;15.428;2024-01-30T03:12:08;14.60;;;9.97;;
83209;SDS011;73098;47.102;15.428;2024-01-30T03:14:36;12.33;;;10.10;;
83209;SDS011;73098;47.102;15.428;2024-01-30T03:17:03;10.57;;;9.47;;
83209;SDS011;73098;47.102;15.428;2024-01-30T03:19:29;14.20;;;9.33;;
83209;SDS011;73098;47.102;15.428;2024-01-30T03:21:56;12.80;;;9.53;;
83209;SDS011;73098;47.102;15.428;2024-01-30T03:24:23;11.30;;;8.63;;
83209;SDS011;73098;47.102;15.428;2024-01-30T03:26:49;13.40;;;9.60;;
83209;SDS011;73098;47.102;15.428;2024-01-30T03:29:16;13.90;;;10.10;;
83209;SDS011;73098;47.102;15.428;2024-01-30T03:31:42;14.40;;;10.23;;
83209;SDS011;73098;47.102;15.428;2024-01-30T03:34:09;10.30;;;9.10;;
83209;SDS011;73098;47.102;15.428;2024-01-30T03:36:36;11.80;;;10.47;;
83209;SDS011;73098;47.102;15.428;2024-01-30T03:39:02;10.67;;;9.57;;
83209;SDS011;73098;47.102;15.428;2024-01-30T03:41:29;10.87;;;8.77;;
83209;SDS011;73098;47.102;15.428;2024-01-30T03:43:56;10.53;;;8.80;;
83209;SDS011;73098;47.102;15.428;2024-01-30T03:46:22;11.60;;;9.53;;
83209;SDS011;73098;47.102;15.428;2024-01-30T03:48:49;10.37;;;8.80;;
83209;SDS011;73098;47.102;15.428;2024-01-30T03:51:15;12.30;;;9.27;;
83209;SDS011;73098;47.102;15.428;2024-01-30T03:53:42;9.70;;;8.40;;
83209;SDS011;73098;47.102;15.428;2024-01-30T03:56:09;10.80;;;9.23;;
83209;SDS011;73098;47.102;15.428;2024-01-30T03:58:36;8.67;;;7.77;;
83209;SDS011;73098;47.102;15.428;2024-01-30T04:01:02;10.83;;;8.60;;
83209;SDS011;73098;47.102;15.428;2024-01-30T04:03:29;10.10;;;7.97;;
83209;SDS011;73098;47.102;15.428;2024-01-30T04:05:56;8.77;;;7.70;;
83209;SDS011;73098;47.102;15.428;2024-01-30T04:08:22;10.27;;;8.70;;
83209;SDS011;73098;47.102;15.428;2024-01-30T04:10:49;9.23;;;8.10;;
83209;SDS011;73098;47.102;15.428;2024-01-30T04:13:15;11.03;;;8.30;;
83209;SDS011;73098;47.102;15.428;2024-01-30T04:15:42;10.23;;;8.30;;
83209;SDS011;73098;47.102;15.428;2024-01-30T04:18:09;10.60;;;8.23;;
83209;SDS011;73098;47.102;15.428;2024-01-30T04:20:35;8.93;;;8.00;;
83209;SDS011;73098;47.102;15.428;2024-01-30T04:23:02;11.90;;;9.20;;
83209;SDS011;73098;47.102;15.428;2024-01-30T04:25:28;12.10;;;9.37;;
83209;SDS011;73098;47.102;15.428;2024-01-30T04:27:55;9.10;;;8.17;;
83209;SDS011;73098;47.102;15.428;2024-01-30T04:30:21;10.97;;;9.27;;
83209;SDS011;73098;47.102;15.428;2024-01-30T04:32:48;10.50;;;8.30;;
83209;SDS011;73098;47.102;15.428;2024-01-30T04:35:15;8.80;;;7.90;;
83209;SDS011;73098;47.102;15.428;2024-01-30T04:37:41;9.97;;;8.97;;
83209;SDS011;73098;47.102;15.428;2024-01-30T04:40:08;9.27;;;8.37;;
83209;SDS011;73098;47.102;15.428;2024-01-30T04:42:35;10.30;;;9.10;;
83209;SDS011;73098;47.102;15.428;2024-01-30T04:45:01;10.80;;;8.03;;
83209;SDS011;73098;47.102;15.428;2024-01-30T04:47:28;9.97;;;8.93;;
83209;SDS011;73098;47.102;15.428;2024-01-30T04:49:55;14.93;;;8.93;;
83209;SDS011;73098;47.102;15.428;2024-01-30T04:52:21;12.93;;;7.70;;
83209;SDS011;73098;47.102;15.428;2024-01-30T04:54:48;8.60;;;7.80;;
83209;SDS011;73098;47.102;15.428;2024-01-30T04:57:14;9.93;;;7.63;;
83209;SDS011;73098;47.102;15.428;2024-01-30T04:59:41;10.50;;;9.40;;
83209;SDS011;73098;47.102;15.428;2024-01-30T05:02:07;11.10;;;9.37;;
83209;SDS011;73098;47.102;15.428;2024-01-30T05:04:34;11.00;;;8.70;;
83209;SDS011;73098;47.102;15.428;2024-01-30T05:07:01;12.10;;;10.00;;
83209;SDS011;73098;47.102;15.428;2024-01-30T05:09:28;11.23;;;10.03;;
83209;SDS011;73098;47.102;15.428;2024-01-30T05:11:54;11.77;;;9.23;;
83209;SDS011;73098;47.102;15.428;2024-01-30T05:14:21;11.60;;;9.33;;
83209;SDS011;73098;47.102;15.428;2024-01-30T05:16:47;14.53;;;10.27;;
83209;SDS011;73098;47.102;15.428;2024-01-30T05:19:14;11.07;;;10.07;;
83209;SDS011;73098;47.102;15.428;2024-01-30T05:21:41;11.03;;;9.70;;
83209;SDS011;73098;47.102;15.428;2024-01-30T05:24:08;12.27;;;9.70;;
83209;SDS011;73098;47.102;15.428;2024-01-30T05:26:34;11.80;;;9.57;;
83209;SDS011;73098;47.102;15.428;2024-01-30T05:29:01;12.40;;;9.70;;
83209;SDS011;73098;47.102;15.428;2024-01-30T05:31:27;10.70;;;8.43;;
83209;SDS011;73098;47.102;15.428;2024-01-30T05:33:54;11.27;;;8.73;;
83209;SDS011;73098;47.102;15.428;2024-01-30T05:36:21;10.53;;;9.63;;
83209;SDS011;73098;47.102;15.428;2024-01-30T05:38:47;10.80;;;9.80;;
83209;SDS011;73098;47.102;15.428;2024-01-30T05:41:14;10.60;;;8.57;;
83209;SDS011;73098;47.102;15.428;2024-01-30T05:43:41;12.83;;;9.23;;
83209;SDS011;73098;47.102;15.428;2024-01-30T05:46:07;10.10;;;8.40;;
83209;SDS011;73098;47.102;15.428;2024-01-30T05:48:34;9.30;;;7.97;;
83209;SDS011;73098;47.102;15.428;2024-01-30T05:51:01;9.70;;;7.97;;
83209;SDS011;73098;47.102;15.428;2024-01-30T05:53:28;14.33;;;9.13;;
83209;SDS011;73098;47.102;15.428;2024-01-30T05:55:55;10.40;;;8.80;;
83209;SDS011;73098;47.102;15.428;2024-01-30T05:58:21;13.47;;;9.50;;
83209;SDS011;73098;47.102;15.428;2024-01-30T06:00:48;12.47;;;8.57;;
83209;SDS011;73098;47.102;15.428;2024-01-30T06:03:15;11.13;;;9.80;;
83209;SDS011;73098;47.102;15.428;2024-01-30T06:05:41;17.30;;;10.83;;
83209;SDS011;73098;47.102;15.428;2024-01-30T06:08:08;12.00;;;10.73;;
83209;SDS011;73098;47.102;15.428;2024-01-30T06:10:35;15.10;;;10.97;;
83209;SDS011;73098;47.102;15.428;2024-01-30T06:13:01;12.17;;;10.97;;
83209;SDS011;73098;47.102;15.428;2024-01-30T06:15:28;12.27;;;10.47;;
83209;SDS011;73098;47.102;15.428;2024-01-30T06:17:55;12.50;;;10.50;;
83209;SDS011;73098;47.102;15.428;2024-01-30T06:20:21;13.13;;;11.27;;
83209;SDS011;73098;47.102;15.428;2024-01-30T06:22:48;12.27;;;10.07;;
83209;SDS011;73098;47.102;15.428;2024-01-30T06:25:15;14.53;;;9.37;;
83209;SDS011;73098;47.102;15.428;2024-01-30T06:27:42;10.53;;;9.50;;
83209;SDS011;73098;47.102;15.428;2024-01-30T06:30:09;11.23;;;9.53;;
83209;SDS011;73098;47.102;15.428;2024-01-30T06:32:36;11.90;;;10.40;;
83209;SDS011;73098;47.102;15.428;2024-01-30T06:35:02;10.00;;;8.67;;
83209;SDS011;73098;47.102;15.428;2024-01-30T06:37:29;10.37;;;9.10;;
83209;SDS011;73098;47.102;15.428;2024-01-30T06:39:56;11.77;;;10.33;;
83209;SDS011;73098;47.102;15.428;2024-01-30T06:42:23;11.00;;;9.50;;
83209;SDS011;73098;47.102;15.428;2024-01-30T06:44:49;9.70;;;8.67;;
83209;SDS011;73098;47.102;15.428;2024-01-30T06:47:16;10.50;;;8.20;;
83209;SDS011;73098;47.102;15.428;2024-01-30T06:49:42;11.90;;;9.83;;
83209;SDS011;73098;47.102;15.428;2024-01-30T06:52:09;13.90;;;10.20;;
83209;SDS011;73098;47.102;15.428;2024-01-30T06:54:35;11.73;;;10.53;;
83209;SDS011;73098;47.102;15.428;2024-01-30T06:57:02;11.70;;;10.57;;
83209;SDS011;73098;47.102;15.428;2024-01-30T06:59:29;15.10;;;13.50;;
83209;SDS011;73098;47.102;15.428;2024-01-30T07:01:55;12.17;;;10.93;;
83209;SDS011;73098;47.102;15.428;2024-01-30T07:04:22;11.53;;;10.33;;
83209;SDS011;73098;47.102;15.428;2024-01-30T07:06:48;10.93;;;9.77;;
83209;SDS011;73098;47.102;15.428;2024-01-30T07:09:15;12.50;;;10.07;;
83209;SDS011;73098;47.102;15.428;2024-01-30T07:11:42;10.40;;;9.30;;
83209;SDS011;73098;47.102;15.428;2024-01-30T07:14:09;12.93;;;9.43;;
83209;SDS011;73098;47.102;15.428;2024-01-30T07:16:35;14.40;;;9.37;;
83209;SDS011;73098;47.102;15.428;2024-01-30T07:19:02;12.50;;;9.77;;
83209;SDS011;73098;47.102;15.428;2024-01-30T07:21:28;11.57;;;9.17;;
83209;SDS011;73098;47.102;15.428;2024-01-30T07:23:55;13.10;;;10.67;;
83209;SDS011;73098;47.102;15.428;2024-01-30T07:26:21;12.20;;;9.90;;
83209;SDS011;73098;47.102;15.428;2024-01-30T07:28:49;10.53;;;9.43;;
83209;SDS011;73098;47.102;15.428;2024-01-30T07:31:15;10.60;;;9.50;;
83209;SDS011;73098;47.102;15.428;2024-01-30T07:33:42;11.90;;;9.97;;
83209;SDS011;73098;47.102;15.428;2024-01-30T07:36:08;13.30;;;11.67;;
83209;SDS011;73098;47.102;15.428;2024-01-30T07:38:35;11.53;;;9.47;;
83209;SDS011;73098;47.102;15.428;2024-01-30T07:41:01;11.90;;;10.60;;
83209;SDS011;73098;47.102;15.428;2024-01-30T07:43:28;12.87;;;10.40;;
83209;SDS011;73098;47.102;15.428;2024-01-30T07:45:54;12.60;;;11.03;;
83209;SDS011;73098;47.102;15.428;2024-01-30T07:48:21;23.70;;;16.83;;
83209;SDS011;73098;47.102;15.428;2024-01-30T07:50:48;31.03;;;22.00;;
83209;SDS011;73098;47.102;15.428;2024-01-30T07:53:15;17.93;;;13.33;;
83209;SDS011;73098;47.102;15.428;2024-01-30T07:55:42;11.67;;;9.57;;
83209;SDS011;73098;47.102;15.428;2024-01-30T07:58:08;22.90;;;13.17;;
83209;SDS011;73098;47.102;15.428;2024-01-30T08:00:35;19.83;;;10.50;;
83209;SDS011;73098;47.102;15.428;2024-01-30T08:03:02;21.67;;;11.00;;
83209;SDS011;73098;47.102;15.428;2024-01-30T08:05:28;23.00;;;9.13;;
83209;SDS011;73098;47.102;15.428;2024-01-30T08:07:55;25.53;;;9.47;;
83209;SDS011;73098;47.102;15.428;2024-01-30T08:10:21;15.23;;;9.67;;
83209;SDS011;73098;47.102;15.428;2024-01-30T08:12:48;14.13;;;9.67;;
83209;SDS011;73098;47.102;15.428;2024-01-30T08:15:15;16.53;;;9.70;;
83209;SDS011;73098;47.102;15.428;2024-01-30T08:17:41;15.73;;;10.03;;
83209;SDS011;73098;47.102;15.428;2024-01-30T08:20:08;12.10;;;8.37;;
83209;SDS011;73098;47.102;15.428;2024-01-30T08:22:35;12.00;;;9.07;;
83209;SDS011;73098;47.102;15.428;2024-01-30T08:25:02;12.40;;;10.50;;
83209;SDS011;73098;47.102;15.428;2024-01-30T08:27:28;10.50;;;8.60;;
83209;SDS011;73098;47.102;15.428;2024-01-30T08:29:55;13.33;;;9.50;;
83209;SDS011;73098;47.102;15.428;2024-01-30T08:32:22;14.00;;;9.60;;
83209;SDS011;73098;47.102;15.428;2024-01-30T08:34:49;14.10;;;9.27;;
83209;SDS011;73098;47.102;15.428;2024-01-30T08:37:16;14.00;;;11.00;;
83209;SDS011;73098;47.102;15.428;2024-01-30T08:39:43;12.53;;;9.27;;
83209;SDS011;73098;47.102;15.428;2024-01-30T08:42:10;11.13;;;9.27;;
83209;SDS011;73098;47.102;15.428;2024-01-30T08:44:36;15.73;;;10.00;;
83209;SDS011;73098;47.102;15.428;2024-01-30T08:47:03;13.97;;;9.63;;
83209;SDS011;73098;47.102;15.428;2024-01-30T08:49:30;17.50;;;10.20;;
83209;SDS011;73098;47.102;15.428;2024-01-30T08:51:57;14.03;;;10.00;;
83209;SDS011;73098;47.102;15.428;2024-01-30T08:54:24;14.83;;;9.57;;
83209;SDS011;73098;47.102;15.428;2024-01-30T08:56:50;21.87;;;9.27;;
83209;SDS011;73098;47.102;15.428;2024-01-30T08:59:18;14.87;;;9.07;;
83209;SDS011;73098;47.102;15.428;2024-01-30T09:01:44;11.90;;;8.80;;
83209;SDS011;73098;47.102;15.428;2024-01-30T09:04:28;12.53;;;8.77;;
83209;SDS011;73098;47.102;15.428;2024-01-30T09:06:55;9.03;;;8.07;;
83209;SDS011;73098;47.102;15.428;2024-01-30T09:09:22;12.80;;;8.27;;
83209;SDS011;73098;47.102;15.428;2024-01-30T09:11:48;15.13;;;8.37;;
83209;SDS011;73098;47.102;15.428;2024-01-30T09:14:15;11.90;;;8.17;;
83209;SDS011;73098;47.102;15.428;2024-01-30T09:16:41;11.43;;;8.67;;
83209;SDS011;73098;47.102;15.428;2024-01-30T09:19:08;12.73;;;7.83;;
83209;SDS011;73098;47.102;15.428;2024-01-30T09:21:35;13.07;;;8.90;;
83209;SDS011;73098;47.102;15.428;2024-01-30T09:24:02;12.73;;;9.10;;
83209;SDS011;73098;47.102;15.428;2024-01-30T09:26:29;11.50;;;8.73;;
83209;SDS011;73098;47.102;15.428;2024-01-30T09:28:55;12.77;;;7.73;;
83209;SDS011;73098;47.102;15.428;2024-01-30T09:31:22;13.80;;;8.60;;
83209;SDS011;73098;47.102;15.428;2024-01-30T09:33:49;9.57;;;7.47;;
83209;SDS011;73098;47.102;15.428;2024-01-30T09:36:15;14.17;;;9.20;;
83209;SDS011;73098;47.102;15.428;2024-01-30T09:38:42;11.77;;;8.50;;
83209;SDS011;73098;47.102;15.428;2024-01-30T09:41:09;16.73;;;8.70;;
83209;SDS011;73098;47.102;15.428;2024-01-30T09:43:36;13.53;;;7.90;;
83209;SDS011;73098;47.102;15.428;2024-01-30T09:46:04;17.53;;;9.03;;
83209;SDS011;73098;47.102;15.428;2024-01-30T09:48:32;8.30;;;7.17;;
83209;SDS011;73098;47.102;15.428;2024-01-30T09:51:00;14.57;;;7.70;;
83209;SDS011;73098;47.102;15.428;2024-01-30T09:53:26;10.13;;;7.83;;
83209;SDS011;73098;47.102;15.428;2024-01-30T09:55:53;12.80;;;8.40;;
83209;SDS011;73098;47.102;15.428;2024-01-30T09:58:19;14.47;;;10.23;;
83209;SDS011;73098;47.102;15.428;2024-01-30T10:00:46;16.03;;;11.30;;
83209;SDS011;73098;47.102;15.428;2024-01-30T10:03:13;18.23;;;12.93;;
83209;SDS011;73098;47.102;15.428;2024-01-30T10:05:40;22.27;;;12.60;;
83209;SDS011;73098;47.102;15.428;2024-01-30T10:08:06;19.57;;;14.07;;
83209;SDS011;73098;47.102;15.428;2024-01-30T10:10:34;20.13;;;14.60;;
83209;SDS011;73098;47.102;15.428;2024-01-30T10:13:01;25.73;;;14.40;;
83209;SDS011;73098;47.102;15.428;2024-01-30T10:17:51;21.87;;;14.33;;
83209;SDS011;73098;47.102;15.428;2024-01-30T10:20:18;21.60;;;15.67;;
83209;SDS011;73098;47.102;15.428;2024-01-30T10:22:45;23.83;;;14.40;;
83209;SDS011;73098;47.102;15.428;2024-01-30T10:25:11;23.47;;;13.97;;
83209;SDS011;73098;47.102;15.428;2024-01-30T10:27:39;24.70;;;16.73;;
83209;SDS011;73098;47.102;15.428;2024-01-30T10:30:06;37.33;;;18.17;;
83209;SDS011;73098;47.102;15.428;2024-01-30T10:32:34;23.40;;;17.67;;
83209;SDS011;73098;47.102;15.428;2024-01-30T10:35:00;20.30;;;16.43;;
83209;SDS011;73098;47.102;15.428;2024-01-30T10:37:28;26.00;;;16.00;;
83209;SDS011;73098;47.102;15.428;2024-01-30T10:39:56;21.73;;;15.73;;
83209;SDS011;73098;47.102;15.428;2024-01-30T10:42:27;21.17;;;17.20;;
83209;SDS011;73098;47.102;15.428;2024-01-30T10:45:07;23.07;;;17.07;;
83209;SDS011;73098;47.102;15.428;2024-01-30T10:47:36;28.60;;;17.47;;
83209;SDS011;73098;47.102;15.428;2024-01-30T10:50:03;20.57;;;17.20;;
83209;SDS011;73098;47.102;15.428;2024-01-30T10:52:30;28.57;;;19.07;;
83209;SDS011;73098;47.102;15.428;2024-01-30T10:54:58;23.97;;;19.00;;
83209;SDS011;73098;47.102;15.428;2024-01-30T10:57:26;31.23;;;19.60;;
83209;SDS011;73098;47.102;15.428;2024-01-30T10:59:54;23.27;;;19.27;;
83209;SDS011;73098;47.102;15.428;2024-01-30T11:02:23;29.47;;;19.20;;
83209;SDS011;73098;47.102;15.428;2024-01-30T11:04:50;28.67;;;19.00;;
83209;SDS011;73098;47.102;15.428;2024-01-30T11:07:25;28.83;;;16.93;;
83209;SDS011;73098;47.102;15.428;2024-01-30T11:09:59;27.43;;;20.63;;
83209;SDS011;73098;47.102;15.428;2024-01-30T11:12:32;26.83;;;19.53;;
83209;SDS011;73098;47.102;15.428;2024-01-30T11:15:08;26.20;;;18.40;;
83209;SDS011;73098;47.102;15.428;2024-01-30T11:17:42;24.80;;;19.23;;
83209;SDS011;73098;47.102;15.428;2024-01-30T11:20:27;27.90;;;19.53;;
83209;SDS011;73098;47.102;15.428;2024-01-30T11:22:56;25.13;;;19.93;;
83209;SDS011;73098;47.102;15.428;2024-01-30T11:25:24;27.70;;;19.53;;
83209;SDS011;73098;47.102;15.428;2024-01-30T11:27:52;27.23;;;18.73;;
83209;SDS011;73098;47.102;15.428;2024-01-30T11:30:26;23.93;;;19.37;;
83209;SDS011;73098;47.102;15.428;2024-01-30T11:35:32;30.23;;;26.60;;
83209;SDS011;73098;47.102;15.428;2024-01-30T11:38:00;43.90;;;29.47;;
83209;SDS011;73098;47.102;15.428;2024-01-30T11:40:28;33.43;;;21.13;;
83209;SDS011;73098;47.102;15.428;2024-01-30T11:42:56;27.17;;;18.10;;
83209;SDS011;73098;47.102;15.428;2024-01-30T11:45:23;28.20;;;19.00;;
83209;SDS011;73098;47.102;15.428;2024-01-30T11:47:50;24.90;;;17.27;;
83209;SDS011;73098;47.102;15.428;2024-01-30T11:50:16;23.97;;;17.83;;
83209;SDS011;73098;47.102;15.428;2024-01-30T11:52:43;29.97;;;18.17;;
83209;SDS011;73098;47.102;15.428;2024-01-30T11:55:10;22.07;;;18.40;;
83209;SDS011;73098;47.102;15.428;2024-01-30T11:57:37;26.23;;;19.03;;
83209;SDS011;73098;47.102;15.428;2024-01-30T12:00:04;25.63;;;18.27;;
83209;SDS011;73098;47.102;15.428;2024-01-30T12:02:31;23.50;;;19.37;;
83209;SDS011;73098;47.102;15.428;2024-01-30T12:04:58;22.20;;;17.20;;
83209;SDS011;73098;47.102;15.428;2024-01-30T12:07:24;23.60;;;18.47;;
83209;SDS011;73098;47.102;15.428;2024-01-30T12:09:54;28.47;;;19.20;;
83209;SDS011;73098;47.102;15.428;2024-01-30T12:12:22;22.00;;;16.87;;
83209;SDS011;73098;47.102;15.428;2024-01-30T12:14:50;23.03;;;17.80;;
83209;SDS011;73098;47.102;15.428;2024-01-30T12:17:30;23.17;;;17.93;;
83209;SDS011;73098;47.102;15.428;2024-01-30T12:22:42;21.07;;;16.13;;
83209;SDS011;73098;47.102;15.428;2024-01-30T12:25:13;21.93;;;17.17;;
83209;SDS011;73098;47.102;15.428;2024-01-30T12:27:44;20.43;;;15.80;;
83209;SDS011;73098;47.102;15.428;2024-01-30T12:30:12;36.00;;;18.70;;
83209;SDS011;73098;47.102;15.428;2024-01-30T12:32:46;27.20;;;17.57;;
83209;SDS011;73098;47.102;15.428;2024-01-30T12:35:13;29.40;;;17.23;;
83209;SDS011;73098;47.102;15.428;2024-01-30T12:37:42;22.63;;;15.50;;
83209;SDS011;73098;47.102;15.428;2024-01-30T12:40:15;18.23;;;15.03;;
83209;SDS011;73098;47.102;15.428;2024-01-30T12:42:43;18.30;;;14.63;;
83209;SDS011;73098;47.102;15.428;2024-01-30T12:45:13;16.60;;;14.80;;
83209;SDS011;73098;47.102;15.428;2024-01-30T12:47:39;19.50;;;15.77;;
83209;SDS011;73098;47.102;15.428;2024-01-30T12:50:07;19.53;;;17.23;;
83209;SDS011;73098;47.102;15.428;2024-01-30T12:52:34;26.03;;;16.03;;
83209;SDS011;73098;47.102;15.428;2024-01-30T12:55:01;20.67;;;15.73;;
83209;SDS011;73098;47.102;15.428;2024-01-30T12:57:28;18.07;;;14.60;;
83209;SDS011;73098;47.102;15.428;2024-01-30T12:59:54;18.13;;;15.20;;
83209;SDS011;73098;47.102;15.428;2024-01-30T13:02:21;16.97;;;14.73;;
83209;SDS011;73098;47.102;15.428;2024-01-30T13:04:47;18.50;;;14.90;;
83209;SDS011;73098;47.102;15.428;2024-01-30T13:07:16;19.30;;;14.83;;
83209;SDS011;73098;47.102;15.428;2024-01-30T13:09:42;16.73;;;14.73;;
83209;SDS011;73098;47.102;15.428;2024-01-30T13:12:09;20.60;;;15.60;;
83209;SDS011;73098;47.102;15.428;2024-01-30T13:14:35;15.60;;;13.90;;
83209;SDS011;73098;47.102;15.428;2024-01-30T13:17:02;16.63;;;14.90;;
83209;SDS011;73098;47.102;15.428;2024-01-30T13:19:29;16.07;;;14.43;;
83209;SDS011;73098;47.102;15.428;2024-01-30T13:21:55;18.83;;;13.40;;
83209;SDS011;73098;47.102;15.428;2024-01-30T13:24:22;16.47;;;14.00;;
83209;SDS011;73098;47.102;15.428;2024-01-30T13:26:49;16.67;;;13.30;;
83209;SDS011;73098;47.102;15.428;2024-01-30T13:29:15;19.17;;;14.57;;
83209;SDS011;73098;47.102;15.428;2024-01-30T13:31:42;20.13;;;13.83;;
83209;SDS011;73098;47.102;15.428;2024-01-30T13:34:08;16.47;;;14.80;;
83209;SDS011;73098;47.102;15.428;2024-01-30T13:36:35;30.93;;;17.00;;
83209;SDS011;73098;47.102;15.428;2024-01-30T13:39:02;23.07;;;16.87;;
83209;SDS011;73098;47.102;15.428;2024-01-30T13:41:29;18.10;;;15.73;;
83209;SDS011;73098;47.102;15.428;2024-01-30T13:43:55;28.20;;;13.80;;
83209;SDS011;73098;47.102;15.428;2024-01-30T13:46:22;15.63;;;13.67;;
83209;SDS011;73098;47.102;15.428;2024-01-30T13:48:48;19.50;;;13.53;;
83209;SDS011;73098;47.102;15.428;2024-01-30T13:51:15;41.17;;;13.60;;
83209;SDS011;73098;47.102;15.428;2024-01-30T13:53:41;22.17;;;12.37;;
83209;SDS011;73098;47.102;15.428;2024-01-30T13:56:08;36.90;;;13.80;;
83209;SDS011;73098;47.102;15.428;2024-01-30T13:58:35;30.53;;;13.53;;
